Time;durP1;ratioP1;P1;durP2;ratioP2;P2;SDS_P1;SDS_P2;PMS_P1;PMS_P2;Temp;Humidity;BMP_temperature;BMP_pressure;BME280_temperature;BME280_humidity;BME280_pressure;Samples;Min_cycle;Max_cycle;Signal;HPM_P1;HPM_P2
2023/04/06 00:00:51;;;;;;;10.53;6.60;;;3.80;70.40;;;;;;5090861;28;20275;-68
2023/04/06 00:03:17;;;;;;;7.65;5.65;;;3.90;70.00;;;;;;5089276;28;20304;-67
2023/04/06 00:05:43;;;;;;;7.05;5.85;;;3.80;70.10;;;;;;5090697;28;20184;-67
2023/04/06 00:08:08;;;;;;;6.70;5.57;;;3.90;69.80;;;;;;5089607;28;20176;-68
2023/04/06 00:10:34;;;;;;;8.80;6.17;;;3.90;69.30;;;;;;5090751;28;20181;-68
2023/04/06 00:13:00;;;;;;;7.43;5.20;;;3.90;69.40;;;;;;5089183;28;20259;-67
2023/04/06 00:15:26;;;;;;;9.60;6.30;;;3.90;69.50;;;;;;5089119;28;20437;-68
2023/04/06 00:17:52;;;;;;;6.38;5.20;;;3.90;69.20;;;;;;5089244;28;20577;-68
2023/04/06 00:20:18;;;;;;;8.30;5.93;;;3.90;69.30;;;;;;5090723;28;20185;-68
2023/04/06 00:22:45;;;;;;;12.83;6.43;;;4.00;69.10;;;;;;5090434;28;20583;-67
2023/04/06 00:25:11;;;;;;;7.60;6.18;;;3.90;68.80;;;;;;5090913;28;20993;-67
2023/04/06 00:27:38;;;;;;;9.85;7.00;;;4.00;68.00;;;;;;5090970;28;20304;-67
2023/04/06 00:30:05;;;;;;;9.50;6.77;;;4.10;68.60;;;;;;5090589;28;20225;-68
2023/04/06 00:32:30;;;;;;;8.77;7.47;;;3.90;72.50;;;;;;5089727;28;20445;-68
2023/04/06 00:34:56;;;;;;;10.10;7.30;;;3.70;74.40;;;;;;5090260;28;20663;-68
2023/04/06 00:37:22;;;;;;;9.43;7.60;;;3.50;76.00;;;;;;5090315;28;20196;-68
2023/04/06 00:39:48;;;;;;;12.63;7.57;;;3.40;77.00;;;;;;5090539;28;20218;-68
2023/04/06 00:42:14;;;;;;;9.53;5.87;;;3.40;76.40;;;;;;5089984;28;20219;-68
2023/04/06 00:44:43;;;;;;;7.40;6.20;;;3.40;73.20;;;;;;5090241;28;20176;-68
2023/04/06 00:47:09;;;;;;;8.68;5.75;;;3.50;71.40;;;;;;5090210;28;20430;-68
2023/04/06 00:49:35;;;;;;;10.65;5.55;;;3.50;71.00;;;;;;5090150;28;20176;-68
2023/04/06 00:52:01;;;;;;;12.27;6.73;;;3.60;71.00;;;;;;5089782;28;20209;-67
2023/04/06 00:54:28;;;;;;;8.37;5.80;;;3.50;70.80;;;;;;5089950;28;20478;-67
2023/04/06 00:56:54;;;;;;;13.32;6.22;;;3.60;70.40;;;;;;5089968;28;20419;-68
2023/04/06 00:59:20;;;;;;;10.05;6.38;;;3.60;70.40;;;;;;5088534;28;20257;-67
2023/04/06 01:01:46;;;;;;;7.77;5.87;;;3.60;70.40;;;;;;5089906;28;20232;-67
2023/04/06 01:04:12;;;;;;;8.47;6.03;;;3.60;70.10;;;;;;5090115;28;20270;-67
2023/04/06 01:06:37;;;;;;;6.13;5.50;;;3.60;70.00;;;;;;5090230;28;20191;-67
2023/04/06 01:09:03;;;;;;;7.73;5.73;;;3.60;70.10;;;;;;5088898;28;20191;-67
2023/04/06 01:11:29;;;;;;;10.37;6.00;;;3.60;70.70;;;;;;5090142;28;20200;-68
2023/04/06 01:13:55;;;;;;;10.55;5.70;;;3.60;70.60;;;;;;5088778;28;20214;-67
2023/04/06 01:16:21;;;;;;;7.60;5.73;;;3.70;70.50;;;;;;5090113;28;20218;-68
2023/04/06 01:18:46;;;;;;;8.33;6.00;;;3.70;70.60;;;;;;5090238;28;20580;-67
2023/04/06 01:21:15;;;;;;;11.10;6.03;;;3.70;70.50;;;;;;5089882;28;20177;-67
2023/04/06 01:23:47;;;;;;;9.90;5.80;;;3.70;70.80;;;;;;5089705;28;20204;-68
2023/04/06 01:26:13;;;;;;;8.30;5.80;;;3.80;70.40;;;;;;5089525;28;20204;-68
2023/04/06 01:28:39;;;;;;;8.02;5.88;;;3.70;70.50;;;;;;5089428;28;20183;-67
2023/04/06 01:31:09;;;;;;;16.07;9.20;;;3.80;70.80;;;;;;5089070;28;20176;-67
2023/04/06 01:33:35;;;;;;;8.43;6.27;;;3.80;71.00;;;;;;5089000;28;21209;-68
2023/04/06 01:36:01;;;;;;;8.57;5.82;;;3.70;70.60;;;;;;5089065;28;20472;-68
2023/04/06 01:38:27;;;;;;;13.77;6.45;;;3.70;70.90;;;;;;5088775;28;20204;-68
2023/04/06 01:40:55;;;;;;;9.17;6.60;;;3.60;70.60;;;;;;5089192;28;20684;-68
2023/04/06 01:43:22;;;;;;;12.20;6.13;;;3.60;71.50;;;;;;5088238;28;20472;-67
2023/04/06 01:45:48;;;;;;;11.70;5.70;;;3.60;70.80;;;;;;5088748;28;20192;-68
2023/04/06 01:48:13;;;;;;;8.00;6.30;;;3.60;71.10;;;;;;5088924;28;20545;-68
2023/04/06 01:50:39;;;;;;;9.90;6.37;;;3.60;71.10;;;;;;5088872;28;20184;-67
2023/04/06 01:53:05;;;;;;;12.10;8.47;;;3.60;72.60;;;;;;5088832;28;20580;-67
2023/04/06 01:55:30;;;;;;;10.17;7.90;;;3.10;77.00;;;;;;5088896;28;20194;-67
2023/04/06 01:57:56;;;;;;;13.23;8.20;;;2.90;81.20;;;;;;5089105;28;20655;-68
2023/04/06 02:00:22;;;;;;;16.10;9.23;;;2.60;85.60;;;;;;5088863;28;20194;-68
2023/04/06 02:02:47;;;;;;;13.33;8.63;;;2.40;88.90;;;;;;5088834;28;20215;-68
2023/04/06 02:05:13;;;;;;;14.80;9.00;;;2.20;90.90;;;;;;5089176;28;20189;-67
2023/04/06 02:07:39;;;;;;;13.70;8.20;;;2.10;91.60;;;;;;5087824;28;20653;-67
2023/04/06 02:10:12;;;;;;;13.07;9.27;;;2.00;92.50;;;;;;5089270;28;20173;-68
2023/04/06 02:12:37;;;;;;;11.23;8.48;;;1.90;93.30;;;;;;5087946;28;20212;-68
2023/04/06 02:15:03;;;;;;;14.70;9.67;;;1.90;93.30;;;;;;5089450;28;20189;-68
2023/04/06 02:17:29;;;;;;;12.70;8.73;;;1.90;94.30;;;;;;5089311;28;20686;-68
2023/04/06 02:19:55;;;;;;;11.93;8.67;;;1.90;94.80;;;;;;5089348;28;20215;-68
2023/04/06 02:22:20;;;;;;;13.93;8.70;;;1.80;94.40;;;;;;5089031;28;20252;-68
2023/04/06 02:24:46;;;;;;;11.83;8.70;;;1.80;94.50;;;;;;5088856;28;20217;-68
2023/04/06 02:27:13;;;;;;;13.77;9.37;;;1.80;94.70;;;;;;5087524;28;20213;-68
2023/04/06 02:29:39;;;;;;;12.40;8.77;;;1.70;95.20;;;;;;5088698;28;20211;-68
2023/04/06 02:32:05;;;;;;;14.87;9.43;;;1.60;95.30;;;;;;5070525;28;20235;-68
2023/04/06 02:34:31;;;;;;;12.47;9.00;;;1.60;95.90;;;;;;5088600;28;20180;-67
2023/04/06 02:36:56;;;;;;;12.97;8.87;;;1.60;96.20;;;;;;5088461;28;20417;-67
2023/04/06 02:39:22;;;;;;;12.53;9.13;;;1.50;96.30;;;;;;5087322;28;20607;-67
2023/04/06 02:41:48;;;;;;;14.33;8.87;;;1.50;97.40;;;;;;5088377;28;20218;-68
2023/04/06 02:44:14;;;;;;;12.23;8.47;;;1.50;97.30;;;;;;5088708;28;20421;-68
2023/04/06 02:46:40;;;;;;;12.77;9.53;;;1.40;97.80;;;;;;5088600;28;20249;-68
2023/04/06 02:49:05;;;;;;;14.33;8.87;;;1.30;98.10;;;;;;5088508;28;20787;-68
2023/04/06 02:51:31;;;;;;;12.20;9.33;;;1.30;98.20;;;;;;5088428;28;20427;-68
2023/04/06 02:53:56;;;;;;;14.13;8.70;;;1.30;98.00;;;;;;5088622;28;20195;-68
2023/04/06 02:56:22;;;;;;;12.60;7.90;;;1.30;97.70;;;;;;5091457;28;20215;-68
2023/04/06 02:58:48;;;;;;;10.00;8.10;;;1.30;98.10;;;;;;5091032;28;20187;-68
2023/04/06 03:01:14;;;;;;;12.90;9.37;;;1.20;98.60;;;;;;5092210;28;20248;-68
2023/04/06 03:03:40;;;;;;;12.70;8.95;;;1.20;98.90;;;;;;5092087;28;20206;-67
2023/04/06 03:06:06;;;;;;;14.07;9.70;;;1.10;99.60;;;;;;5092274;28;20191;-68
2023/04/06 03:08:31;;;;;;;18.50;9.10;;;1.10;99.20;;;;;;5092241;28;20182;-67
2023/04/06 03:10:57;;;;;;;11.20;8.60;;;1.00;99.50;;;;;;5090608;28;20204;-68
2023/04/06 03:13:23;;;;;;;13.70;9.60;;;1.10;99.60;;;;;;5091819;28;20237;-68
2023/04/06 03:15:48;;;;;;;11.13;8.23;;;1.00;99.70;;;;;;5090294;28;20437;-68
2023/04/06 03:18:14;;;;;;;12.93;8.83;;;1.10;99.50;;;;;;5091709;28;20179;-67
2023/04/06 03:20:40;;;;;;;13.93;8.50;;;1.00;99.50;;;;;;5091772;28;20876;-68
2023/04/06 03:23:06;;;;;;;12.97;9.77;;;1.10;99.90;;;;;;5091540;28;20655;-68
2023/04/06 03:25:31;;;;;;;11.67;8.53;;;1.00;99.90;;;;;;5091789;28;20408;-68
2023/04/06 03:27:57;;;;;;;13.97;9.63;;;1.00;99.90;;;;;;5091522;28;20175;-68
2023/04/06 03:30:23;;;;;;;13.00;9.57;;;0.90;99.90;;;;;;5091509;28;20183;-68
2023/04/06 03:32:48;;;;;;;13.30;8.73;;;0.80;99.90;;;;;;5091421;28;20202;-68
2023/04/06 03:35:14;;;;;;;12.93;8.13;;;0.70;99.90;;;;;;5091531;28;20186;-68
2023/04/06 03:37:40;;;;;;;11.90;8.27;;;0.70;99.90;;;;;;5091120;28;20281;-67
2023/04/06 03:40:07;;;;;;;12.33;8.37;;;0.70;99.90;;;;;;5091251;28;20206;-67
2023/04/06 03:42:32;;;;;;;12.93;8.98;;;0.70;99.90;;;;;;5091224;28;21046;-67
2023/04/06 03:44:58;;;;;;;13.50;10.27;;;0.70;99.90;;;;;;5091235;28;20261;-68
2023/04/06 03:47:24;;;;;;;16.15;9.98;;;0.60;99.90;;;;;;5091087;28;20178;-68
2023/04/06 03:49:50;;;;;;;15.80;9.70;;;0.60;99.90;;;;;;5091061;28;20182;-68
2023/04/06 03:52:16;;;;;;;11.20;8.67;;;0.60;99.90;;;;;;5090995;28;20443;-68
2023/04/06 03:54:41;;;;;;;11.47;8.17;;;0.60;99.90;;;;;;5090791;28;20193;-68
2023/04/06 03:57:07;;;;;;;10.47;8.30;;;0.60;99.90;;;;;;5091008;28;20190;-68
2023/04/06 03:59:33;;;;;;;10.33;8.00;;;0.60;99.90;;;;;;5090927;28;20206;-68
2023/04/06 04:01:58;;;;;;;18.40;9.07;;;0.60;99.90;;;;;;5090580;28;20241;-68
2023/04/06 04:04:24;;;;;;;13.13;8.37;;;0.60;99.90;;;;;;5090828;28;20281;-68
2023/04/06 04:06:50;;;;;;;12.73;9.30;;;0.60;99.90;;;;;;5089767;28;20608;-68
2023/04/06 04:09:15;;;;;;;10.93;7.43;;;0.50;99.90;;;;;;5089253;28;20261;-68
2023/04/06 04:11:41;;;;;;;12.43;8.27;;;0.50;99.90;;;;;;5090414;28;20205;-68
2023/04/06 04:14:07;;;;;;;8.57;6.73;;;0.50;99.90;;;;;;5089197;28;20209;-69
2023/04/06 04:16:32;;;;;;;11.73;8.23;;;0.50;99.90;;;;;;5090501;28;20561;-68
2023/04/06 04:18:58;;;;;;;22.77;11.40;;;0.50;99.90;;;;;;5090661;28;20266;-68
2023/04/06 04:21:25;;;;;;;13.90;9.67;;;0.40;99.90;;;;;;5090448;28;20198;-68
2023/04/06 04:23:52;;;;;;;26.88;16.35;;;0.40;99.90;;;;;;5090522;28;20504;-68
2023/04/06 04:26:18;;;;;;;17.42;11.20;;;0.30;99.90;;;;;;5088956;28;20231;-68
2023/04/06 04:28:43;;;;;;;17.07;9.67;;;0.40;99.90;;;;;;5090316;28;20186;-68
2023/04/06 04:31:10;;;;;;;16.93;12.30;;;0.20;99.90;;;;;;5090091;28;20266;-68
2023/04/06 04:33:35;;;;;;;14.65;9.52;;;0.40;99.90;;;;;;5088648;28;20178;-68
2023/04/06 04:36:01;;;;;;;14.83;9.17;;;0.30;99.90;;;;;;5090125;28;20262;-68
2023/04/06 04:38:26;;;;;;;14.10;9.57;;;0.30;99.90;;;;;;5089924;28;20199;-67
2023/04/06 04:40:52;;;;;;;13.80;9.23;;;0.30;99.90;;;;;;5088547;28;20224;-68
2023/04/06 04:43:18;;;;;;;14.60;9.97;;;0.30;99.90;;;;;;5088407;28;20698;-67
2023/04/06 04:45:43;;;;;;;15.17;9.43;;;0.20;99.90;;;;;;5089761;28;20189;-67
2023/04/06 04:48:09;;;;;;;10.63;8.10;;;0.20;99.90;;;;;;5089990;28;20178;-68
2023/04/06 04:50:35;;;;;;;10.68;9.00;;;0.20;99.90;;;;;;5090156;28;20179;-68
2023/04/06 04:53:01;;;;;;;14.57;8.50;;;0.30;99.90;;;;;;5090011;28;20199;-67
2023/04/06 04:55:27;;;;;;;12.80;8.40;;;0.20;99.90;;;;;;5089910;28;20253;-67
2023/04/06 04:57:52;;;;;;;12.90;8.80;;;0.30;99.90;;;;;;5087756;28;20178;-68
2023/04/06 05:00:19;;;;;;;13.40;8.07;;;0.40;99.90;;;;;;5088630;28;20189;-69
2023/04/06 05:02:45;;;;;;;11.43;7.45;;;0.20;99.90;;;;;;5088540;28;20974;-68
2023/04/06 05:05:11;;;;;;;8.60;6.80;;;0.30;99.90;;;;;;5088448;28;20179;-69
2023/04/06 05:07:36;;;;;;;14.67;7.50;;;0.20;99.90;;;;;;5070186;28;20210;-69
2023/04/06 05:10:02;;;;;;;10.07;8.00;;;0.20;99.90;;;;;;5088618;28;20212;-68
2023/04/06 05:12:28;;;;;;;11.63;8.13;;;0.10;99.90;;;;;;5088286;28;20216;-69
2023/04/06 05:14:54;;;;;;;12.77;8.02;;;0.20;99.90;;;;;;5088065;28;20279;-69
2023/04/06 05:17:20;;;;;;;13.60;8.00;;;0.20;99.90;;;;;;5088313;28;20631;-69
2023/04/06 05:19:46;;;;;;;17.53;9.77;;;0.30;99.90;;;;;;5086539;28;20416;-68
2023/04/06 05:22:14;;;;;;;19.60;10.03;;;0.20;99.90;;;;;;5087957;28;20471;-68
2023/04/06 05:24:40;;;;;;;13.05;8.05;;;0.40;99.90;;;;;;5088041;28;20580;-69
2023/04/06 05:27:06;;;;;;;12.35;8.05;;;0.40;99.90;;;;;;5088164;28;20227;-68
2023/04/06 05:29:31;;;;;;;12.82;8.45;;;0.50;99.90;;;;;;5086744;28;20269;-68
2023/04/06 05:31:57;;;;;;;12.37;8.87;;;0.40;99.90;;;;;;5087966;28;20206;-69
2023/04/06 05:34:23;;;;;;;12.37;8.73;;;0.40;99.90;;;;;;5086503;28;20452;-68
2023/04/06 05:36:48;;;;;;;12.10;8.43;;;0.40;99.90;;;;;;5069276;28;20192;-69
2023/04/06 05:39:14;;;;;;;14.67;8.70;;;0.40;99.90;;;;;;5087995;28;20190;-69
2023/04/06 05:41:40;;;;;;;11.83;8.43;;;0.50;99.90;;;;;;5088157;28;20202;-69
2023/04/06 05:44:06;;;;;;;13.60;8.53;;;0.50;99.90;;;;;;5086155;28;20228;-69
2023/04/06 05:46:31;;;;;;;12.03;8.67;;;0.70;99.90;;;;;;5086498;28;20182;-69
2023/04/06 05:48:57;;;;;;;12.53;9.27;;;0.80;99.90;;;;;;5087697;28;20215;-69
2023/04/06 05:51:23;;;;;;;11.87;8.00;;;0.90;99.90;;;;;;5087874;28;20204;-69
2023/04/06 05:53:48;;;;;;;11.87;9.03;;;1.10;99.90;;;;;;5088063;28;20287;-69
2023/04/06 05:56:14;;;;;;;14.87;8.60;;;1.20;99.90;;;;;;5088081;28;20205;-69
2023/04/06 05:58:39;;;;;;;16.83;9.83;;;1.30;99.90;;;;;;5088064;28;20882;-69
2023/04/06 06:01:05;;;;;;;14.97;9.53;;;1.40;99.90;;;;;;5087716;28;20258;-69
2023/04/06 06:03:31;;;;;;;17.00;10.37;;;1.60;99.90;;;;;;5069506;28;20296;-69
2023/04/06 06:06:03;;;;;;;16.83;9.37;;;1.70;99.70;;;;;;5087964;28;20179;-69
2023/04/06 06:08:29;;;;;;;19.23;10.10;;;1.90;99.60;;;;;;5088060;28;20226;-69
2023/04/06 06:10:56;;;;;;;14.43;9.43;;;2.00;99.70;;;;;;5087711;28;20206;-69
2023/04/06 06:13:22;;;;;;;14.95;9.88;;;2.20;99.00;;;;;;5087376;28;20271;-69
2023/04/06 06:15:48;;;;;;;13.07;8.98;;;2.40;98.70;;;;;;5087465;28;20196;-69
2023/04/06 06:18:14;;;;;;;16.75;9.43;;;2.60;97.10;;;;;;5087366;28;20174;-69
2023/04/06 06:20:40;;;;;;;16.03;10.17;;;2.90;96.40;;;;;;5087498;28;20181;-69
2023/04/06 06:23:05;;;;;;;26.57;17.13;;;3.10;95.50;;;;;;5087195;28;20215;-69
2023/04/06 06:25:31;;;;;;;18.47;10.47;;;3.30;95.60;;;;;;5087512;28;20267;-69
2023/04/06 06:27:58;;;;;;;12.98;8.93;;;3.60;95.50;;;;;;5087273;28;20729;-69
2023/04/06 06:30:24;;;;;;;15.00;8.95;;;4.00;93.40;;;;;;5088917;28;20203;-69
2023/04/06 06:32:50;;;;;;;13.40;8.60;;;4.40;91.30;;;;;;5091252;28;20209;-69
2023/04/06 06:35:16;;;;;;;13.05;8.07;;;4.70;89.00;;;;;;5091419;28;20418;-69
2023/04/06 06:37:42;;;;;;;14.00;9.20;;;4.80;87.70;;;;;;5090984;28;20205;-69
2023/04/06 06:40:10;;;;;;;20.33;9.80;;;4.90;86.20;;;;;;5091440;28;20772;-69
2023/04/06 06:42:36;;;;;;;18.13;9.93;;;5.10;85.10;;;;;;5091256;28;20252;-69
2023/04/06 06:45:01;;;;;;;18.40;10.70;;;5.30;83.60;;;;;;5090030;28;20455;-69
2023/04/06 06:47:27;;;;;;;20.20;10.83;;;5.40;83.10;;;;;;5091630;28;21287;-69
2023/04/06 06:49:52;;;;;;;16.67;10.00;;;5.60;82.70;;;;;;5090186;28;20195;-69
2023/04/06 06:52:18;;;;;;;16.27;10.80;;;5.70;80.40;;;;;;5091107;28;20211;-69
2023/04/06 06:54:44;;;;;;;17.30;10.63;;;5.80;79.80;;;;;;5091419;28;20175;-69
2023/04/06 06:57:10;;;;;;;17.70;10.57;;;5.80;78.40;;;;;;5091440;28;20424;-69
2023/04/06 06:59:35;;;;;;;15.37;10.43;;;6.00;78.00;;;;;;5091463;28;20186;-69
2023/04/06 07:02:01;;;;;;;16.77;9.67;;;6.00;77.50;;;;;;5091279;28;20216;-69
2023/04/06 07:04:27;;;;;;;15.10;9.60;;;6.20;76.10;;;;;;5091523;28;20175;-69
2023/04/06 07:06:52;;;;;;;14.20;9.37;;;6.50;74.80;;;;;;5091341;28;20625;-69
2023/04/06 07:09:19;;;;;;;13.37;9.20;;;6.60;74.70;;;;;;5091647;28;20193;-70
2023/04/06 07:11:44;;;;;;;15.03;10.27;;;6.50;74.20;;;;;;5089710;28;20213;-69
2023/04/06 07:14:11;;;;;;;12.30;8.83;;;6.70;75.30;;;;;;5091367;28;20442;-69
2023/04/06 07:16:37;;;;;;;11.73;9.17;;;6.80;74.60;;;;;;5089453;28;20187;-69
2023/04/06 07:19:02;;;;;;;13.97;8.90;;;6.90;75.40;;;;;;5089795;28;20511;-69
2023/04/06 07:21:28;;;;;;;15.83;9.73;;;7.10;75.70;;;;;;5091083;28;20202;-69
2023/04/06 07:23:54;;;;;;;14.37;10.53;;;7.10;73.70;;;;;;5091076;28;20279;-70
2023/04/06 07:26:20;;;;;;;15.00;10.40;;;7.40;75.00;;;;;;5091065;28;20835;-69
2023/04/06 07:28:45;;;;;;;17.50;11.30;;;7.50;73.80;;;;;;5090961;28;20209;-69
2023/04/06 07:31:11;;;;;;;11.53;10.30;;;7.70;72.60;;;;;;5089329;28;20213;-69
2023/04/06 07:33:37;;;;;;;16.50;11.40;;;7.60;70.40;;;;;;5091126;28;20183;-69
2023/04/06 07:36:03;;;;;;;16.30;10.17;;;7.90;71.70;;;;;;5091054;28;20228;-69
2023/04/06 07:38:28;;;;;;;16.23;9.47;;;8.00;69.10;;;;;;5089272;28;20226;-70
2023/04/06 07:40:54;;;;;;;11.10;9.30;;;8.00;66.00;;;;;;5090677;28;20213;-69
2023/04/06 07:43:19;;;;;;;13.70;10.40;;;8.10;66.10;;;;;;5088502;28;20497;-69
2023/04/06 07:45:45;;;;;;;13.53;9.20;;;8.20;64.80;;;;;;5090860;28;20206;-68
2023/04/06 07:48:11;;;;;;;13.60;10.00;;;8.10;63.30;;;;;;5090792;28;20537;-69
2023/04/06 07:50:37;;;;;;;15.47;9.47;;;8.10;64.70;;;;;;5090830;28;20181;-69
2023/04/06 07:53:02;;;;;;;13.40;9.60;;;8.30;65.10;;;;;;5090433;28;20198;-70
2023/04/06 07:55:28;;;;;;;15.10;10.20;;;8.30;62.70;;;;;;5090424;28;20973;-69
2023/04/06 07:57:54;;;;;;;13.77;9.50;;;8.50;64.30;;;;;;5090215;28;20247;-69
2023/04/06 08:00:20;;;;;;;12.63;9.70;;;8.70;62.60;;;;;;5090180;28;20323;-69
2023/04/06 08:02:46;;;;;;;23.13;10.30;;;9.00;63.40;;;;;;5088848;28;20207;-69
2023/04/06 08:05:11;;;;;;;13.47;9.20;;;9.20;61.80;;;;;;5090598;28;20787;-69
2023/04/06 08:07:37;;;;;;;13.53;10.07;;;9.40;62.00;;;;;;5090520;28;20558;-68
2023/04/06 08:10:03;;;;;;;13.57;10.17;;;9.50;60.10;;;;;;5090007;28;20175;-68
2023/04/06 08:12:29;;;;;;;15.80;10.43;;;9.40;59.40;;;;;;5089956;28;20595;-69
2023/04/06 08:14:56;;;;;;;12.53;9.47;;;9.40;59.40;;;;;;5089861;28;21294;-69
2023/04/06 08:17:22;;;;;;;15.33;9.80;;;9.40;59.20;;;;;;5089699;28;20523;-69
2023/04/06 08:19:47;;;;;;;16.30;10.57;;;9.60;60.00;;;;;;5089417;28;20495;-69
2023/04/06 08:22:13;;;;;;;14.13;10.13;;;9.90;61.10;;;;;;5089362;28;20316;-68
2023/04/06 08:24:39;;;;;;;16.77;10.90;;;10.10;59.20;;;;;;5089265;28;20266;-69
2023/04/06 08:27:05;;;;;;;19.47;12.40;;;10.50;59.20;;;;;;5089478;28;20182;-68
2023/04/06 08:29:30;;;;;;;12.33;10.00;;;10.40;58.00;;;;;;5089062;28;20179;-69
2023/04/06 08:31:56;;;;;;;17.43;10.50;;;10.70;59.00;;;;;;5087811;28;20276;-70
2023/04/06 08:34:22;;;;;;;14.57;9.83;;;10.80;58.70;;;;;;5089366;28;20261;-69
2023/04/06 08:36:48;;;;;;;14.60;10.53;;;10.90;58.10;;;;;;5087634;28;20554;-69
2023/04/06 08:39:14;;;;;;;13.70;9.63;;;11.10;57.90;;;;;;5089038;28;20420;-69
2023/04/06 08:41:42;;;;;;;16.53;9.60;;;11.10;58.30;;;;;;5089042;28;20709;-68
2023/04/06 08:44:08;;;;;;;14.67;10.33;;;11.30;58.00;;;;;;5088859;28;20626;-68
2023/04/06 08:46:34;;;;;;;13.13;9.77;;;11.40;58.20;;;;;;5089470;28;20461;-68
2023/04/06 08:49:06;;;;;;;17.10;9.93;;;11.60;57.10;;;;;;5089291;28;20311;-69
2023/04/06 08:51:32;;;;;;;14.23;9.97;;;12.00;57.90;;;;;;5089007;28;21010;-69
2023/04/06 08:53:59;;;;;;;18.00;11.20;;;12.20;57.20;;;;;;5087322;28;20453;-70
2023/04/06 08:56:27;;;;;;;10.93;8.77;;;12.30;56.30;;;;;;5070661;28;20207;-70
2023/04/06 08:58:54;;;;;;;18.83;11.33;;;12.50;56.60;;;;;;5088922;28;20423;-70
2023/04/06 09:01:43;;;;;;;13.77;10.00;;;12.90;55.00;;;;;;5088910;28;20405;-70
2023/04/06 09:04:10;;;;;;;14.70;10.30;;;12.90;53.80;;;;;;5088825;28;20432;-70
2023/04/06 09:06:36;;;;;;;14.70;10.43;;;13.00;56.60;;;;;;5087552;28;20494;-68
2023/04/06 09:09:03;;;;;;;16.10;10.40;;;13.00;54.30;;;;;;5088615;28;20792;-68
2023/04/06 09:11:29;;;;;;;21.47;9.83;;;13.30;53.90;;;;;;5088627;28;20512;-69
2023/04/06 09:13:56;;;;;;;14.80;9.90;;;13.70;54.10;;;;;;5087303;28;20885;-69
2023/04/06 09:16:22;;;;;;;14.80;10.07;;;14.20;51.90;;;;;;5088813;28;20465;-69
2023/04/06 09:18:49;;;;;;;18.93;10.30;;;14.30;49.20;;;;;;5088792;28;20868;-68
2023/04/06 09:21:18;;;;;;;19.70;11.10;;;14.70;49.90;;;;;;5088789;28;20444;-69
2023/04/06 09:23:44;;;;;;;14.87;10.00;;;14.80;50.00;;;;;;5087327;28;20467;-68
2023/04/06 09:26:15;;;;;;;13.23;10.10;;;15.20;48.00;;;;;;5090916;28;20748;-69
2023/04/06 09:28:49;;;;;;;14.73;10.20;;;15.70;45.80;;;;;;5090851;28;20419;-68
2023/04/06 09:31:21;;;;;;;19.90;11.33;;;15.90;44.70;;;;;;5088582;28;20407;-68
2023/04/06 09:33:46;;;;;;;18.37;10.50;;;16.00;43.10;;;;;;5088650;28;20954;-70
2023/04/06 09:36:15;;;;;;;17.90;12.37;;;16.30;44.30;;;;;;5070263;28;20433;-70
2023/04/06 09:38:54;;;;;;;14.00;9.90;;;16.20;40.20;;;;;;5087384;28;20197;-69
2023/04/06 09:41:36;;;;;;;13.23;9.67;;;16.10;40.50;;;;;;5086938;28;20424;-69
2023/04/06 09:44:10;;;;;;;15.43;10.50;;;16.30;42.20;;;;;;5088628;28;20538;-70
2023/04/06 09:46:44;;;;;;;15.90;9.80;;;16.70;40.50;;;;;;5088961;28;20843;-70
2023/04/06 09:49:11;;;;;;;13.67;9.80;;;16.70;39.50;;;;;;5088660;28;20419;-70
2023/04/06 09:51:47;;;;;;;13.17;9.57;;;16.90;37.30;;;;;;5088596;28;20943;-70
2023/04/06 09:54:18;;;;;;;15.80;10.80;;;17.10;37.40;;;;;;5087518;28;21400;-70
2023/04/06 09:57:08;;;;;;;12.70;9.30;;;17.50;36.00;;;;;;5088909;28;20413;-69
2023/04/06 09:59:58;;;;;;;15.30;10.20;;;17.60;36.20;;;;;;5086520;28;20825;-70
2023/04/06 10:03:14;;;;;;;14.23;9.83;;;18.10;36.00;;;;;;5088246;28;20456;-70
2023/04/06 10:05:40;;;;;;;13.40;9.80;;;18.30;36.30;;;;;;5005086;28;20451;-71
2023/04/06 10:08:10;;;;;;;13.13;10.20;;;18.20;36.20;;;;;;4989578;28;20797;-70
2023/04/06 10:10:36;;;;;;;15.27;10.50;;;18.10;36.10;;;;;;5053223;28;20205;-70
2023/04/06 10:13:03;;;;;;;13.40;10.07;;;17.80;34.00;;;;;;5088001;28;20560;-69
2023/04/06 10:15:30;;;;;;;14.70;10.30;;;17.80;34.90;;;;;;5087908;28;20422;-69
2023/04/06 10:18:00;;;;;;;15.23;9.30;;;18.00;34.40;;;;;;5088175;28;20443;-69
2023/04/06 10:20:38;;;;;;;14.33;10.40;;;18.20;34.10;;;;;;5087463;28;20482;-70
2023/04/06 10:23:15;;;;;;;14.97;9.50;;;18.20;33.50;;;;;;5087532;28;20478;-70
2023/04/06 10:25:59;;;;;;;15.07;9.97;;;18.20;32.30;;;;;;5087375;28;20654;-69
2023/04/06 10:28:25;;;;;;;13.33;10.40;;;18.40;31.60;;;;;;5085826;28;20433;-71
2023/04/06 10:31:04;;;;;;;13.00;9.20;;;18.90;32.60;;;;;;5087282;28;20420;-69
2023/04/06 10:33:29;;;;;;;15.40;10.57;;;18.90;31.50;;;;;;5087392;28;20417;-69
2023/04/06 10:35:55;;;;;;;12.03;9.47;;;18.40;29.30;;;;;;5085964;28;20471;-69
2023/04/06 10:38:32;;;;;;;13.87;9.50;;;18.40;30.00;;;;;;5086924;28;20327;-69
2023/04/06 10:41:05;;;;;;;12.43;9.47;;;18.70;31.20;;;;;;5087106;28;20608;-69
2023/04/06 10:43:35;;;;;;;15.50;10.50;;;19.00;30.90;;;;;;5087102;28;20551;-70
2023/04/06 10:46:01;;;;;;;13.03;9.57;;;19.30;33.00;;;;;;5085942;28;20423;-69
2023/04/06 10:48:41;;;;;;;13.13;10.33;;;19.60;33.00;;;;;;5086772;28;20426;-69
2023/04/06 10:51:09;;;;;;;14.23;10.13;;;19.50;32.20;;;;;;5086653;28;20557;-69
2023/04/06 10:53:35;;;;;;;13.27;9.90;;;19.40;32.50;;;;;;5085082;28;20429;-69
2023/04/06 10:56:03;;;;;;;11.30;8.60;;;19.20;32.10;;;;;;5086648;28;20824;-69
2023/04/06 10:58:30;;;;;;;13.90;10.23;;;19.40;32.70;;;;;;5086588;28;20275;-69
2023/04/06 11:00:56;;;;;;;13.77;9.27;;;19.20;30.90;;;;;;5086593;28;20455;-69
2023/04/06 11:03:22;;;;;;;14.40;10.27;;;19.60;31.10;;;;;;5087101;28;20553;-69
2023/04/06 11:05:50;;;;;;;13.83;9.57;;;19.20;29.00;;;;;;5085900;28;20437;-69
2023/04/06 11:08:45;;;;;;;12.30;9.23;;;19.40;28.50;;;;;;5087112;28;20915;-70
2023/04/06 11:11:15;;;;;;;11.80;9.40;;;19.10;28.60;;;;;;5069577;28;20431;-69
2023/04/06 11:13:54;;;;;;;12.17;9.20;;;19.10;28.70;;;;;;5087174;28;20470;-69
2023/04/06 11:16:22;;;;;;;12.87;9.23;;;19.40;29.40;;;;;;5088308;28;20479;-69
2023/04/06 11:19:06;;;;;;;13.47;9.23;;;19.70;30.60;;;;;;5090807;28;20418;-69
2023/04/06 11:21:39;;;;;;;12.50;9.63;;;19.80;29.60;;;;;;5089123;28;20457;-70
2023/04/06 11:24:11;;;;;;;13.77;9.20;;;19.80;27.60;;;;;;5088947;28;21009;-69
2023/04/06 11:26:44;;;;;;;12.80;8.77;;;19.40;27.00;;;;;;5090806;28;20411;-69
2023/04/06 11:29:11;;;;;;;10.93;8.70;;;19.60;27.30;;;;;;5090767;28;20940;-69
2023/04/06 11:31:48;;;;;;;15.70;8.93;;;19.60;28.60;;;;;;5090433;28;20469;-69
2023/04/06 11:34:20;;;;;;;10.60;8.67;;;19.20;26.50;;;;;;5090556;28;20401;-69
2023/04/06 11:36:47;;;;;;;11.47;8.93;;;19.20;26.90;;;;;;5088912;28;21053;-69
2023/04/06 11:39:17;;;;;;;10.47;8.60;;;19.40;28.40;;;;;;5090170;28;20813;-69
2023/04/06 11:41:48;;;;;;;10.80;9.00;;;19.40;28.40;;;;;;5090085;28;20463;-69
2023/04/06 11:44:14;;;;;;;12.30;8.90;;;19.50;28.60;;;;;;5088855;28;20852;-70
2023/04/06 11:46:39;;;;;;;12.03;8.73;;;19.80;29.20;;;;;;5090281;28;20486;-68
2023/04/06 11:49:05;;;;;;;10.23;7.60;;;19.50;27.60;;;;;;5090016;28;20177;-68
2023/04/06 11:51:35;;;;;;;8.73;7.37;;;19.20;28.20;;;;;;5088739;28;20220;-68
2023/04/06 11:54:01;;;;;;;10.10;7.67;;;19.40;28.40;;;;;;5088893;28;20185;-70
2023/04/06 11:56:29;;;;;;;11.07;8.80;;;19.40;28.00;;;;;;5090009;28;20434;-69
2023/04/06 11:58:56;;;;;;;9.70;7.77;;;19.10;27.80;;;;;;5088958;28;20281;-69
2023/04/06 12:01:22;;;;;;;11.57;7.40;;;19.10;26.10;;;;;;5088531;28;20842;-69
2023/04/06 12:03:48;;;;;;;8.60;7.20;;;19.10;26.90;;;;;;5090250;28;20467;-69
2023/04/06 12:06:15;;;;;;;10.90;8.07;;;19.30;27.30;;;;;;5090078;28;20437;-69
2023/04/06 12:08:40;;;;;;;9.17;7.97;;;19.20;24.90;;;;;;5090235;28;20498;-69
2023/04/06 12:11:06;;;;;;;10.07;7.53;;;19.50;27.10;;;;;;5090334;28;20409;-70
2023/04/06 12:13:32;;;;;;;12.10;8.20;;;19.70;26.80;;;;;;5090691;28;20440;-68
2023/04/06 12:15:58;;;;;;;10.00;7.57;;;20.00;28.30;;;;;;5090768;28;20955;-70
2023/04/06 12:18:23;;;;;;;15.33;9.10;;;19.70;26.90;;;;;;5090287;28;20203;-70
2023/04/06 12:20:49;;;;;;;9.70;7.77;;;19.50;26.80;;;;;;5088936;28;20194;-70
2023/04/06 12:23:15;;;;;;;10.53;8.00;;;19.50;27.50;;;;;;5089999;28;20303;-70
2023/04/06 12:25:41;;;;;;;10.33;8.10;;;19.40;27.80;;;;;;5089665;28;20189;-69
2023/04/06 12:28:07;;;;;;;11.10;6.67;;;19.40;26.10;;;;;;5088740;28;20548;-69
2023/04/06 12:30:34;;;;;;;11.83;8.63;;;19.40;26.20;;;;;;5090200;28;20415;-69
2023/04/06 12:33:01;;;;;;;11.67;8.20;;;19.50;25.60;;;;;;5089896;28;20193;-71
2023/04/06 12:35:27;;;;;;;10.17;7.17;;;19.40;26.80;;;;;;5090108;28;20493;-69
2023/04/06 12:37:52;;;;;;;11.53;7.23;;;19.40;27.30;;;;;;5090004;28;20473;-69
2023/04/06 12:40:18;;;;;;;8.27;7.33;;;19.30;25.90;;;;;;5089702;28;20181;-69
2023/04/06 12:42:45;;;;;;;9.23;7.40;;;19.40;26.80;;;;;;5089602;28;20267;-69